秋田空港の過去48時間の天気

秋田空港 (Akita)

現在時刻: 10/18 12:58 JST (10/18 03:58 UTC) 以下の時間は現地時間です。

過去48時間のMETAR気象情報
時間 風向 風速(m/s) 視程 気温(℃) 湿度(%) 気圧(hPa) 天気現象
18 12:00 西 3 10km以上 15 48 1018
18 11:00 北西 3 10km以上 15 45 1018
18 10:00 南東 2 10km以上 13 62 1018
18 09:00 南南東 2 10km以上 10 82 1019
18 08:00 南東 3 10km以上 7 93 1018
18 07:43 南東 3 10km以上 6 93 1018 部分霧
18 07:00 南東 2 10km以上 6 93 1018
18 06:40 東南東 2 10km以上 5 93 1018
17 21:00 不定 1 10km以上 8 87 1016
17 20:00 東北東 1 10km以上 9 76 1015
17 19:00 2 10km以上 10 71 1015
17 18:00 北北西 2 10km以上 11 71 1015
17 17:00 北北西 3 10km以上 12 67 1014
17 16:00 北西 3 10km以上 14 59 1014
17 15:00 北西 3 10km以上 14 55 1013
17 14:00 4 10km以上 16 51 1012
17 13:00 北西 4 10km以上 15 55 1012
17 12:00 北北西 4 10km以上 15 59 1013
17 11:00 西北西 2 10km以上 13 72 1013
17 10:00 不定 1 10km以上 12 82 1013
17 09:17 不定 1 10km以上 12 88 1013
17 09:00 不定 1 10km以上 11 94 1013
17 08:39 不定 1 10km以上 11 100 1013
17 08:26 不定 1 6000m 11 94 1013 部分霧
17 08:16 不定 1 4000m 11 94 1013 部分霧 もや
17 08:06 不定 1 1500m 11 94 1013 散在した霧 もや
17 08:00 不定 1 800m 11 94 1013
17 07:49 南南東 2 400m 10 100 1013
17 07:21 南南東 2 300m 10 94 1012
17 07:00 不定 1 200m 10 94 1012
17 06:40 不定 1 200m 10 94 1012
16 21:00 不定 1 10km以上 12 94 1013
16 20:00 北北西 2 10km以上 13 82 1013
16 19:00 1 10km以上 12 88 1013
16 18:00 北西 2 10km以上 14 77 1013
16 17:00 2 10km以上 14 82 1013 周辺でしゅう雨
16 16:00 西 3 10km以上 17 68 1013
16 15:00 西 3 10km以上 18 64 1013
16 14:00 不定 1 10km以上 18 64 1013
16 13:00 不定 1 10km以上 17 63 1013
RJSK 180300Z 27006KT 180V340 9999 FEW030 BKN045 15/04 Q1018
RJSK 180200Z 31006KT 220V350 9999 SCT040 15/03 Q1018
RJSK 180100Z 13003KT 100V200 9999 FEW040 13/06 Q1018
RJSK 180000Z 15004KT 110V210 9999 FEW040 10/07 Q1019
RJSK 172300Z 14005KT 9999 FEW040 07/06 Q1018
RJSK 172243Z 14005KT 110V170 9999 R28/P1800N PRFG FEW001 BKN002 06/05 Q1018 RMK 2ST001 5ST002 A3008 1200NE-SE
RJSK 172200Z 13004KT 9999 FEW002 SCT050 06/05 Q1018
RJSK 172140Z 12003KT 9999 FEW001 SCT050 05/04 Q1018 RMK 1ST001 4CU050 A3007
RJSK 171200Z VRB02KT 9999 FEW040 08/06 Q1016
RJSK 171100Z 06001KT 9999 FEW035 SCT040 09/05 Q1015
RJSK 171000Z 35004KT 9999 FEW035 SCT040 10/05 Q1015
RJSK 170900Z 33004KT 9999 FEW035 BKN040 11/06 Q1015
RJSK 170800Z 33005KT 9999 FEW035 SCT045 12/06 Q1014
RJSK 170700Z 32006KT 9999 FEW030 14/06 Q1014
RJSK 170600Z 32006KT 280V340 9999 FEW030 BKN040 14/05 Q1013
RJSK 170500Z 35007KT 310V030 9999 FEW030 BKN035 16/06 Q1012
RJSK 170400Z 32007KT 9999 FEW030 SCT040 15/06 Q1012
RJSK 170300Z 34008KT 9999 FEW030 SCT/// 15/07 Q1013
RJSK 170200Z 30004KT 260V010 9999 FEW015 BKN120 BKN150 13/08 Q1013
RJSK 170100Z VRB01KT 9999 FEW005 BKN100 BKN120 12/09 Q1013
RJSK 170017Z VRB02KT 9999 FEW002 SCT004 BKN100 12/10 Q1013 RMK 1ST002 4ST004 6AC100 A2992
RJSK 170000Z VRB02KT 9999 FEW001 SCT003 BKN004 11/10 Q1013
RJSK 162339Z VRB01KT 9999 FEW001 SCT002 BKN004 11/11 Q1013 RMK 2ST001 4ST002 6ST004 A2992
RJSK 162326Z VRB01KT 6000 PRFG SCT001 BKN002 BKN004 11/10 Q1013 RMK 3ST001 5ST002 7ST004 A2992 1600NE-SE
RJSK 162316Z VRB02KT 4000 R28/P1800N PRFG BR SCT001 BKN002 BKN004 11/10 Q1013 RMK 3ST001 5ST002 7ST004 A2992 1200NE-SE
RJSK 162306Z VRB02KT 1500 R28/P1800N BCFG BR SCT001 BKN002 11/10 Q1013 RMK 4ST001 7ST002 A2992
RJSK 162300Z VRB02KT 0800 R28/1200VP1800U FG SCT001 BKN002 11/10 Q1013
RJSK 162249Z 15004KT 110V180 0400 R28/0500V1600U FG BKN001 BKN002 10/10 Q1013 RMK 5ST001 7ST002 A2992
RJSK 162221Z 15003KT 110V190 0300 R28/0300V0550U FG BKN001 BKN002 10/09 Q1012 RMK 5ST001 7ST002 A2991
RJSK 162200Z VRB02KT 0200 R28/0300N FG BKN001 BKN002 10/09 Q1012
RJSK 162140Z VRB02KT 0200 R28/0150N FG BKN001 BKN002 10/09 Q1012 RMK 5ST001 7ST002 A2990
RJSK 161200Z VRB02KT 9999 FEW030 BKN090 12/11 Q1013
RJSK 161100Z 34003KT 9999 FEW030 BKN090 BKN/// 13/10 Q1013
RJSK 161000Z 35001KT 9999 FEW030 BKN080 12/10 Q1013
RJSK 160900Z 32004KT 9999 FEW030 14/10 Q1013
RJSK 160800Z 01003KT 9999 VCSH FEW030 BKN/// 14/11 Q1013
RJSK 160700Z 26006KT 220V280 9999 FEW030 FEW040TCU SCT070 17/11 Q1013
RJSK 160600Z 28005KT 9999 FEW030 BKN080 18/11 Q1013
RJSK 160500Z VRB01KT 9999 FEW030 SCT050 BKN100 18/11 Q1013
RJSK 160400Z VRB02KT 9999 FEW030 SCT080 BKN/// 17/10 Q1013